Airfield :
LOGIN :

Register | Disclaimer

   EN    FR    IT 

 










Legend :    VFR   Marginal VFR   IFR   Intensive IFR   Very Intensive IFR
Visi :
Ceiling :
>= 8 km
>= 3000ft
5 to 8 km
1000 to 3000 ft
1500m to 5 km
500 to 1000 ft
800 to 1500m
200 to 500 ft
< 800m
< 200 ft
Symbols :   Thunderstorms  Fog  Heavy snow  Heavy precipitations  Wind > 20 kt
SIGMETs :     Misc.  Thunderstorms  Icing  Turbulence  Mountain Waves  Volcanic Ashes







- Airport Elevation : 2220 ft


LOXZ - Zeltweg AB

CURRENT METAR :
  • 251150Z 20010KT 30KM SCT050CU 17/02 Q1008 NOSIG

EXPIRED METARs :
  • 251120Z 27009KT 30KM SCT050CU 18/02 Q1008 NOSIG
  • 251050Z 25004KT 30KM FEW045SC SCT050CU 16/02 Q1009 NOSIG
  • 251020Z 23008KT 30KM FEW045SC SCT050CU 17/02 Q1009 NOSIG
  • 250950Z 27005KT 30KM FEW045SC SCT050CU 17/03 Q1009 NOSIG
  • 250920Z 21013KT 30KM FEW045SC SCT050CU 16/02 Q1010 NOSIG

TAF TAF LOXZ
Valid from the 25 at 12:00 until the 25 at 21:00 UTC


251115Z 2512/2521 24010KT 9999 FEW040 SCT300
TEMPO 2512/2518 20015G25KT FEW040 SCT050 BKN300
No reported NOTAMs for that airfield.



MET'MAP, your aeronautical weather chart ! - Copyright ORBIFLY December 2007 - Disclaimer

ORBIFLY MET'MAP TEAM :

Programming & Development : Alexandra Zaïnal
Concept & Development : Baudouin d'Aumeries
Co-Development & Prog : Marc-Olivier Méhu
Technical & hardware support : Manuel Goepfert

Contact : metmap@orbifly.com




SOURCES & CREDITS :

   NOAA